Overview Statistics Trail Chart Weather Telemetry Raw packets
 

This is the latest recevied weather packets stored in our database for station/object CT1EDG-13. If no packets are shown the sender has not sent any weather packets the latest 10 day(s).

<< 17 18 19 20 21 22 23 >>
Time Temp. Humidity Pressure Rain* Wind** Luminosity Snow
1788491616 22.78° C 10% - 0 mm - - -
1788491615 22.78° C 10% - 0 mm - - -
1788491016 22.78° C 10% - 0 mm - - -
1788491015 22.78° C 10% - 0 mm - - -
1788490416 22.78° C 10% - 0 mm - - -
1788490415 22.78° C 10% - 0 mm - - -
1788489818 22.22° C 11% - 0 mm - - -
1788489815 22.22° C 11% - 0 mm - - -
1788489217 22.78° C 98% 1009.6 hPa 0 mm - - -
1788489215 22.78° C 98% 1009.6 hPa 0 mm - - -
1788488617 23.33° C 92% 1009.6 hPa 0 mm - - -
1788488615 23.33° C 92% 1009.6 hPa 0 mm - - -
1788488016 24.44° C 83% 1009.9 hPa 0 mm - - -
1788488015 24.44° C 83% 1009.9 hPa 0 mm - - -
1788487416 26.11° C 73% 1009.8 hPa 0 mm - - -
1788487415 26.11° C 73% 1009.8 hPa 0 mm - - -
1788486817 25.56° C 76% 1009.4 hPa 0 mm - - -
1788486815 25.56° C 76% 1009.4 hPa 0 mm - - -
1788486217 25° C 78% 1009.7 hPa 0 mm - - -
1788486215 25° C 78% 1009.7 hPa 0 mm - - -
1788485617 24.44° C 82% 1010.5 hPa 0 mm - - -
1788485615 24.44° C 82% 1010.5 hPa 0 mm - - -
1788485015 23.89° C 87% 1010.4 hPa 0 mm - - -
1788485014 23.89° C 87% 1010.4 hPa 0 mm - - -
1788484415 28.33° C 50% 1009.2 hPa 0 mm - - -

* Rain latest hour (hover to see other rain measurements)
** Current wind speed in m/s (hover to see current wind gust speed)